sensor_id;sensor_type;location;lat;lon;timestamp;pressure;altitude;pressure_sealevel;temperature;humidity
34931;BME280;21134;49.646;8.560;2023-03-02T00:01:46;100847.78;;;1.32;70.03
34931;BME280;21134;49.646;8.560;2023-03-02T00:04:17;100843.16;;;1.22;70.88
34931;BME280;21134;49.646;8.560;2023-03-02T00:06:45;100844.31;;;1.30;71.02
34931;BME280;21134;49.646;8.560;2023-03-02T00:09:13;100837.63;;;1.30;71.33
34931;BME280;21134;49.646;8.560;2023-03-02T00:11:40;100838.59;;;1.34;71.14
34931;BME280;21134;49.646;8.560;2023-03-02T00:14:06;100836.00;;;1.31;71.28
34931;BME280;21134;49.646;8.560;2023-03-02T00:16:33;100833.13;;;1.23;71.80
34931;BME280;21134;49.646;8.560;2023-03-02T00:18:59;100835.34;;;1.15;72.14
34931;BME280;21134;49.646;8.560;2023-03-02T00:21:27;100830.22;;;1.14;73.31
34931;BME280;21134;49.646;8.560;2023-03-02T00:23:53;100824.84;;;1.26;72.87
34931;BME280;21134;49.646;8.560;2023-03-02T00:26:20;100818.22;;;1.49;72.28
34931;BME280;21134;49.646;8.560;2023-03-02T00:28:46;100827.28;;;1.65;72.17
34931;BME280;21134;49.646;8.560;2023-03-02T00:31:13;100824.16;;;1.70;71.81
34931;BME280;21134;49.646;8.560;2023-03-02T00:33:40;100828.19;;;1.88;70.84
34931;BME280;21134;49.646;8.560;2023-03-02T00:36:14;100823.84;;;2.06;70.32
34931;BME280;21134;49.646;8.560;2023-03-02T00:38:42;100828.19;;;2.08;70.43
34931;BME280;21134;49.646;8.560;2023-03-02T00:41:10;100822.59;;;1.95;69.94
34931;BME280;21134;49.646;8.560;2023-03-02T00:43:37;100825.41;;;1.81;69.41
34931;BME280;21134;49.646;8.560;2023-03-02T00:46:08;100835.28;;;1.54;70.57
34931;BME280;21134;49.646;8.560;2023-03-02T00:48:35;100822.75;;;1.36;70.88
34931;BME280;21134;49.646;8.560;2023-03-02T00:51:01;100826.56;;;1.27;71.47
34931;BME280;21134;49.646;8.560;2023-03-02T00:53:28;100818.75;;;1.21;71.24
34931;BME280;21134;49.646;8.560;2023-03-02T00:55:56;100820.00;;;1.11;71.89
34931;BME280;21134;49.646;8.560;2023-03-02T00:58:22;100818.03;;;1.04;72.95
34931;BME280;21134;49.646;8.560;2023-03-02T01:00:50;100812.28;;;1.06;72.48
34931;BME280;21134;49.646;8.560;2023-03-02T01:03:17;100807.69;;;0.98;73.00
34931;BME280;21134;49.646;8.560;2023-03-02T01:05:43;100805.16;;;0.98;73.37
34931;BME280;21134;49.646;8.560;2023-03-02T01:08:10;100804.00;;;0.89;73.93
34931;BME280;21134;49.646;8.560;2023-03-02T01:10:36;100806.56;;;0.72;75.35
34931;BME280;21134;49.646;8.560;2023-03-02T01:13:04;100802.97;;;0.66;75.26
34931;BME280;21134;49.646;8.560;2023-03-02T01:15:32;100797.63;;;0.59;75.86
34931;BME280;21134;49.646;8.560;2023-03-02T01:17:59;100796.09;;;0.62;75.83
34931;BME280;21134;49.646;8.560;2023-03-02T01:20:26;100797.31;;;0.71;75.86
34931;BME280;21134;49.646;8.560;2023-03-02T01:22:53;100788.09;;;0.71;76.07
34931;BME280;21134;49.646;8.560;2023-03-02T01:25:20;100797.34;;;0.72;75.77
34931;BME280;21134;49.646;8.560;2023-03-02T01:27:46;100780.78;;;0.97;75.60
34931;BME280;21134;49.646;8.560;2023-03-02T01:30:15;100785.88;;;0.98;74.78
34931;BME280;21134;49.646;8.560;2023-03-02T01:32:41;100784.72;;;0.90;74.86
34931;BME280;21134;49.646;8.560;2023-03-02T01:35:08;100786.47;;;0.92;74.83
34931;BME280;21134;49.646;8.560;2023-03-02T01:37:35;100780.53;;;0.90;75.10
34931;BME280;21134;49.646;8.560;2023-03-02T01:40:02;100781.97;;;0.85;75.32
34931;BME280;21134;49.646;8.560;2023-03-02T01:42:33;100782.31;;;0.93;75.68
34931;BME280;21134;49.646;8.560;2023-03-02T01:44:59;100774.41;;;1.05;74.53
34931;BME280;21134;49.646;8.560;2023-03-02T01:47:31;100771.97;;;1.27;73.76
34931;BME280;21134;49.646;8.560;2023-03-02T01:50:02;100768.22;;;1.38;72.99
34931;BME280;21134;49.646;8.560;2023-03-02T01:52:32;100764.00;;;1.37;72.85
34931;BME280;21134;49.646;8.560;2023-03-02T01:55:02;100763.00;;;1.34;73.39
34931;BME280;21134;49.646;8.560;2023-03-02T01:57:31;100764.28;;;1.45;72.50
34931;BME280;21134;49.646;8.560;2023-03-02T02:00:01;100762.72;;;1.47;72.19
34931;BME280;21134;49.646;8.560;2023-03-02T02:02:34;100759.75;;;1.57;72.23
34931;BME280;21134;49.646;8.560;2023-03-02T02:05:02;100753.19;;;1.62;71.40
34931;BME280;21134;49.646;8.560;2023-03-02T02:07:29;100753.16;;;1.40;71.98
34931;BME280;21134;49.646;8.560;2023-03-02T02:09:56;100751.28;;;1.34;72.11
34931;BME280;21134;49.646;8.560;2023-03-02T02:12:23;100741.59;;;1.24;72.56
34931;BME280;21134;49.646;8.560;2023-03-02T02:14:49;100747.31;;;1.20;72.60
34931;BME280;21134;49.646;8.560;2023-03-02T02:17:17;100745.03;;;1.26;72.26
34931;BME280;21134;49.646;8.560;2023-03-02T02:20:01;100745.25;;;1.31;72.17
34931;BME280;21134;49.646;8.560;2023-03-02T02:22:46;100749.34;;;1.29;72.33
34931;BME280;21134;49.646;8.560;2023-03-02T02:25:24;100739.34;;;1.51;71.50
34931;BME280;21134;49.646;8.560;2023-03-02T02:27:56;100735.84;;;1.48;71.08
34931;BME280;21134;49.646;8.560;2023-03-02T02:30:23;100736.94;;;1.54;71.08
34931;BME280;21134;49.646;8.560;2023-03-02T02:32:51;100732.97;;;1.40;71.53
34931;BME280;21134;49.646;8.560;2023-03-02T02:35:23;100738.09;;;1.21;71.71
34931;BME280;21134;49.646;8.560;2023-03-02T02:37:53;100733.78;;;1.18;72.20
34931;BME280;21134;49.646;8.560;2023-03-02T02:40:37;100737.78;;;1.34;71.19
34931;BME280;21134;49.646;8.560;2023-03-02T02:43:07;100737.84;;;1.35;71.36
34931;BME280;21134;49.646;8.560;2023-03-02T02:45:37;100731.34;;;1.20;71.89
34931;BME280;21134;49.646;8.560;2023-03-02T02:48:04;100735.03;;;1.28;71.49
34931;BME280;21134;49.646;8.560;2023-03-02T02:50:33;100739.84;;;1.22;71.45
34931;BME280;21134;49.646;8.560;2023-03-02T02:53:05;100728.75;;;1.18;71.76
34931;BME280;21134;49.646;8.560;2023-03-02T02:55:33;100741.72;;;1.06;72.03
34931;BME280;21134;49.646;8.560;2023-03-02T02:58:02;100741.28;;;1.16;71.68
34931;BME280;21134;49.646;8.560;2023-03-02T03:00:35;100733.97;;;1.23;71.41
34931;BME280;21134;49.646;8.560;2023-03-02T03:03:05;100737.91;;;1.16;71.36
34931;BME280;21134;49.646;8.560;2023-03-02T03:05:53;100736.72;;;1.08;71.42
34931;BME280;21134;49.646;8.560;2023-03-02T03:08:49;100735.41;;;1.16;71.04
34931;BME280;21134;49.646;8.560;2023-03-02T03:11:19;100733.13;;;1.22;70.54
34931;BME280;21134;49.646;8.560;2023-03-02T03:13:52;100731.94;;;1.14;70.25
34931;BME280;21134;49.646;8.560;2023-03-02T03:16:22;100734.53;;;1.15;70.37
34931;BME280;21134;49.646;8.560;2023-03-02T03:18:49;100728.69;;;1.16;69.77
34931;BME280;21134;49.646;8.560;2023-03-02T03:21:16;100728.31;;;1.07;70.26
34931;BME280;21134;49.646;8.560;2023-03-02T03:23:43;100731.91;;;1.12;70.58
34931;BME280;21134;49.646;8.560;2023-03-02T03:26:10;100730.84;;;1.07;70.72
34931;BME280;21134;49.646;8.560;2023-03-02T03:28:37;100725.84;;;0.88;71.12
34931;BME280;21134;49.646;8.560;2023-03-02T03:31:03;100741.03;;;0.89;71.16
34931;BME280;21134;49.646;8.560;2023-03-02T03:33:31;100725.03;;;0.89;71.22
34931;BME280;21134;49.646;8.560;2023-03-02T03:35:58;100722.03;;;0.98;71.23
34931;BME280;21134;49.646;8.560;2023-03-02T03:38:25;100725.91;;;0.89;71.35
34931;BME280;21134;49.646;8.560;2023-03-02T03:40:52;100724.75;;;1.02;70.92
34931;BME280;21134;49.646;8.560;2023-03-02T03:43:18;100727.94;;;0.98;70.84
34931;BME280;21134;49.646;8.560;2023-03-02T03:45:45;100724.56;;;0.98;70.87
34931;BME280;21134;49.646;8.560;2023-03-02T03:48:11;100720.13;;;0.92;71.41
34931;BME280;21134;49.646;8.560;2023-03-02T03:50:39;100724.72;;;0.81;71.54
34931;BME280;21134;49.646;8.560;2023-03-02T03:53:05;100717.72;;;0.95;70.98
34931;BME280;21134;49.646;8.560;2023-03-02T03:55:32;100719.22;;;0.90;71.31
34931;BME280;21134;49.646;8.560;2023-03-02T03:57:59;100718.97;;;0.84;71.15
34931;BME280;21134;49.646;8.560;2023-03-02T04:00:25;100717.72;;;0.74;71.80
34931;BME280;21134;49.646;8.560;2023-03-02T04:02:52;100724.38;;;0.93;71.48
34931;BME280;21134;49.646;8.560;2023-03-02T04:05:18;100727.91;;;0.77;71.63
34931;BME280;21134;49.646;8.560;2023-03-02T04:07:47;100723.41;;;0.89;71.44
34931;BME280;21134;49.646;8.560;2023-03-02T04:10:13;100732.31;;;0.83;71.63
34931;BME280;21134;49.646;8.560;2023-03-02T04:12:40;100728.38;;;0.68;71.85
34931;BME280;21134;49.646;8.560;2023-03-02T04:15:09;100729.31;;;0.71;71.75
34931;BME280;21134;49.646;8.560;2023-03-02T04:17:37;100733.41;;;0.68;72.15
34931;BME280;21134;49.646;8.560;2023-03-02T04:20:05;100733.81;;;0.58;72.68
34931;BME280;21134;49.646;8.560;2023-03-02T04:22:33;100732.03;;;0.56;72.62
34931;BME280;21134;49.646;8.560;2023-03-02T04:25:01;100735.81;;;0.46;73.26
34931;BME280;21134;49.646;8.560;2023-03-02T04:27:29;100739.19;;;0.46;72.99
34931;BME280;21134;49.646;8.560;2023-03-02T04:29:55;100743.34;;;0.46;73.10
34931;BME280;21134;49.646;8.560;2023-03-02T04:32:22;100743.50;;;0.49;73.21
34931;BME280;21134;49.646;8.560;2023-03-02T04:34:48;100745.56;;;0.58;73.02
34931;BME280;21134;49.646;8.560;2023-03-02T04:37:15;100747.03;;;0.54;72.32
34931;BME280;21134;49.646;8.560;2023-03-02T04:39:41;100745.91;;;0.47;73.06
34931;BME280;21134;49.646;8.560;2023-03-02T04:42:12;100748.16;;;0.41;73.47
34931;BME280;21134;49.646;8.560;2023-03-02T04:44:39;100742.50;;;0.45;73.12
34931;BME280;21134;49.646;8.560;2023-03-02T04:47:05;100752.75;;;0.50;73.29
34931;BME280;21134;49.646;8.560;2023-03-02T04:49:32;100752.75;;;0.50;73.05
34931;BME280;21134;49.646;8.560;2023-03-02T04:51:58;100748.66;;;0.52;73.24
34931;BME280;21134;49.646;8.560;2023-03-02T04:54:25;100747.44;;;0.63;72.51
34931;BME280;21134;49.646;8.560;2023-03-02T04:56:53;100741.91;;;0.51;73.24
34931;BME280;21134;49.646;8.560;2023-03-02T04:59:23;100743.22;;;0.62;72.56
34931;BME280;21134;49.646;8.560;2023-03-02T05:01:52;100743.03;;;0.58;72.97
34931;BME280;21134;49.646;8.560;2023-03-02T05:04:19;100742.91;;;0.55;73.11
34931;BME280;21134;49.646;8.560;2023-03-02T05:06:46;100737.91;;;0.56;72.95
34931;BME280;21134;49.646;8.560;2023-03-02T05:09:13;100740.84;;;0.65;72.92
34931;BME280;21134;49.646;8.560;2023-03-02T05:11:39;100738.50;;;0.51;73.70
34931;BME280;21134;49.646;8.560;2023-03-02T05:14:08;100735.22;;;0.52;73.25
34931;BME280;21134;49.646;8.560;2023-03-02T05:16:39;100739.00;;;0.61;73.77
34931;BME280;21134;49.646;8.560;2023-03-02T05:19:07;100733.47;;;0.70;73.15
34931;BME280;21134;49.646;8.560;2023-03-02T05:21:34;100734.00;;;0.63;73.54
34931;BME280;21134;49.646;8.560;2023-03-02T05:24:00;100731.56;;;0.64;73.71
34931;BME280;21134;49.646;8.560;2023-03-02T05:26:27;100735.06;;;0.68;73.64
34931;BME280;21134;49.646;8.560;2023-03-02T05:28:54;100736.25;;;0.76;73.70
34931;BME280;21134;49.646;8.560;2023-03-02T05:31:23;100726.00;;;0.72;73.82
34931;BME280;21134;49.646;8.560;2023-03-02T05:33:53;100732.19;;;0.80;73.87
34931;BME280;21134;49.646;8.560;2023-03-02T05:36:20;100732.28;;;0.81;73.60
34931;BME280;21134;49.646;8.560;2023-03-02T05:38:47;100726.84;;;0.72;73.75
34931;BME280;21134;49.646;8.560;2023-03-02T05:41:13;100729.75;;;0.81;73.78
34931;BME280;21134;49.646;8.560;2023-03-02T05:43:40;100724.31;;;0.91;72.80
34931;BME280;21134;49.646;8.560;2023-03-02T05:46:06;100729.41;;;0.93;72.90
34931;BME280;21134;49.646;8.560;2023-03-02T05:48:33;100732.66;;;0.90;73.03
34931;BME280;21134;49.646;8.560;2023-03-02T05:51:01;100729.34;;;0.91;72.72
34931;BME280;21134;49.646;8.560;2023-03-02T05:53:27;100729.81;;;0.83;73.18
34931;BME280;21134;49.646;8.560;2023-03-02T05:55:54;100734.84;;;0.83;73.44
34931;BME280;21134;49.646;8.560;2023-03-02T05:58:21;100730.47;;;0.79;73.56
34931;BME280;21134;49.646;8.560;2023-03-02T06:00:47;100730.22;;;0.73;73.49
34931;BME280;21134;49.646;8.560;2023-03-02T06:03:14;100734.31;;;0.90;73.26
34931;BME280;21134;49.646;8.560;2023-03-02T06:05:41;100736.91;;;0.91;73.13
34931;BME280;21134;49.646;8.560;2023-03-02T06:08:09;100738.31;;;0.85;73.62
34931;BME280;21134;49.646;8.560;2023-03-02T06:10:36;100740.09;;;0.87;73.64
34931;BME280;21134;49.646;8.560;2023-03-02T06:13:02;100746.72;;;0.85;73.35
34931;BME280;21134;49.646;8.560;2023-03-02T06:15:29;100745.00;;;0.84;73.70
34931;BME280;21134;49.646;8.560;2023-03-02T06:17:56;100751.69;;;0.84;73.79
34931;BME280;21134;49.646;8.560;2023-03-02T06:20:22;100748.16;;;1.00;73.16
34931;BME280;21134;49.646;8.560;2023-03-02T06:22:49;100749.56;;;0.93;73.35
34931;BME280;21134;49.646;8.560;2023-03-02T06:25:19;100741.47;;;1.00;73.11
34931;BME280;21134;49.646;8.560;2023-03-02T06:27:46;100742.06;;;0.95;73.31
34931;BME280;21134;49.646;8.560;2023-03-02T06:30:16;100753.94;;;0.97;73.19
34931;BME280;21134;49.646;8.560;2023-03-02T06:32:43;100753.25;;;1.01;73.57
34931;BME280;21134;49.646;8.560;2023-03-02T06:35:10;100757.13;;;0.93;73.45
34931;BME280;21134;49.646;8.560;2023-03-02T06:37:37;100754.25;;;1.05;73.69
34931;BME280;21134;49.646;8.560;2023-03-02T06:40:05;100762.22;;;0.95;74.13
34931;BME280;21134;49.646;8.560;2023-03-02T06:42:36;100760.50;;;1.14;73.23
34931;BME280;21134;49.646;8.560;2023-03-02T06:45:04;100761.59;;;1.20;73.29
34931;BME280;21134;49.646;8.560;2023-03-02T06:47:32;100758.50;;;1.27;73.12
34931;BME280;21134;49.646;8.560;2023-03-02T06:49:58;100762.00;;;1.30;73.16
34931;BME280;21134;49.646;8.560;2023-03-02T06:52:25;100767.00;;;1.29;73.02
34931;BME280;21134;49.646;8.560;2023-03-02T06:54:52;100768.97;;;1.15;73.60
34931;BME280;21134;49.646;8.560;2023-03-02T06:57:18;100768.78;;;1.31;73.10
34931;BME280;21134;49.646;8.560;2023-03-02T06:59:46;100773.16;;;1.35;72.95
34931;BME280;21134;49.646;8.560;2023-03-02T07:02:13;100770.06;;;1.43;72.81
34931;BME280;21134;49.646;8.560;2023-03-02T07:04:39;100770.72;;;1.59;72.16
34931;BME280;21134;49.646;8.560;2023-03-02T07:07:06;100774.06;;;1.58;72.36
34931;BME280;21134;49.646;8.560;2023-03-02T07:09:32;100774.56;;;1.71;72.36
34931;BME280;21134;49.646;8.560;2023-03-02T07:11:59;100783.66;;;1.67;71.83
34931;BME280;21134;49.646;8.560;2023-03-02T07:14:26;100780.47;;;1.71;71.42
34931;BME280;21134;49.646;8.560;2023-03-02T07:16:53;100783.22;;;1.77;71.13
34931;BME280;21134;49.646;8.560;2023-03-02T07:19:21;100779.84;;;1.77;71.81
34931;BME280;21134;49.646;8.560;2023-03-02T07:21:48;100777.47;;;1.81;71.63
34931;BME280;21134;49.646;8.560;2023-03-02T07:24:14;100786.47;;;1.96;71.42
34931;BME280;21134;49.646;8.560;2023-03-02T07:26:41;100774.66;;;1.95;71.09
34931;BME280;21134;49.646;8.560;2023-03-02T07:29:07;100771.56;;;2.02;71.40
34931;BME280;21134;49.646;8.560;2023-03-02T07:31:34;100780.16;;;2.07;71.09
34931;BME280;21134;49.646;8.560;2023-03-02T07:34:02;100784.19;;;2.24;70.45
34931;BME280;21134;49.646;8.560;2023-03-02T07:36:28;100777.28;;;2.43;69.99
34931;BME280;21134;49.646;8.560;2023-03-02T07:38:55;100784.16;;;2.47;69.65
34931;BME280;21134;49.646;8.560;2023-03-02T07:41:21;100781.38;;;2.63;69.27
34931;BME280;21134;49.646;8.560;2023-03-02T07:43:48;100789.59;;;2.58;68.86
34931;BME280;21134;49.646;8.560;2023-03-02T07:46:14;100786.16;;;2.79;68.42
34931;BME280;21134;49.646;8.560;2023-03-02T07:48:41;100778.56;;;2.78;68.39
34931;BME280;21134;49.646;8.560;2023-03-02T07:51:09;100787.31;;;2.88;68.62
34931;BME280;21134;49.646;8.560;2023-03-02T07:53:35;100786.53;;;2.90;68.23
34931;BME280;21134;49.646;8.560;2023-03-02T07:56:05;100781.88;;;3.01;67.88
34931;BME280;21134;49.646;8.560;2023-03-02T07:58:31;100785.56;;;3.11;68.01
34931;BME280;21134;49.646;8.560;2023-03-02T08:00:58;100783.34;;;3.20;66.97
34931;BME280;21134;49.646;8.560;2023-03-02T08:03:25;100787.84;;;3.29;66.79
34931;BME280;21134;49.646;8.560;2023-03-02T08:05:51;100770.75;;;3.47;66.34
34931;BME280;21134;49.646;8.560;2023-03-02T08:08:19;100775.78;;;3.47;66.90
34931;BME280;21134;49.646;8.560;2023-03-02T08:10:46;100778.50;;;3.52;66.14
34931;BME280;21134;49.646;8.560;2023-03-02T08:13:12;100774.00;;;3.70;65.58
34931;BME280;21134;49.646;8.560;2023-03-02T08:15:39;100777.91;;;3.87;65.06
34931;BME280;21134;49.646;8.560;2023-03-02T08:18:05;100778.00;;;3.90;65.05
34931;BME280;21134;49.646;8.560;2023-03-02T08:20:32;100770.97;;;4.09;65.04
34931;BME280;21134;49.646;8.560;2023-03-02T08:22:58;100775.59;;;4.22;64.55
34931;BME280;21134;49.646;8.560;2023-03-02T08:25:26;100767.13;;;4.52;63.60
34931;BME280;21134;49.646;8.560;2023-03-02T08:27:53;100769.75;;;4.55;64.32
34931;BME280;21134;49.646;8.560;2023-03-02T08:30:19;100767.19;;;4.53;64.22
34931;BME280;21134;49.646;8.560;2023-03-02T08:32:46;100773.69;;;4.75;63.28
34931;BME280;21134;49.646;8.560;2023-03-02T08:35:12;100765.88;;;4.68;63.75
34931;BME280;21134;49.646;8.560;2023-03-02T08:37:39;100761.56;;;4.95;62.94
34931;BME280;21134;49.646;8.560;2023-03-02T08:40:06;100769.00;;;4.89;63.34
34931;BME280;21134;49.646;8.560;2023-03-02T08:42:34;100759.81;;;4.94;63.48
34931;BME280;21134;49.646;8.560;2023-03-02T08:45:01;100764.69;;;5.18;62.70
34931;BME280;21134;49.646;8.560;2023-03-02T08:47:27;100759.00;;;5.27;62.08
34931;BME280;21134;49.646;8.560;2023-03-02T08:49:54;100748.19;;;5.35;61.88
34931;BME280;21134;49.646;8.560;2023-03-02T08:52:20;100759.53;;;5.50;61.56
34931;BME280;21134;49.646;8.560;2023-03-02T08:54:47;100760.69;;;5.63;61.53
34931;BME280;21134;49.646;8.560;2023-03-02T08:57:13;100750.75;;;5.72;61.21
34931;BME280;21134;49.646;8.560;2023-03-02T08:59:41;100748.22;;;5.73;61.21
34931;BME280;21134;49.646;8.560;2023-03-02T09:02:09;100746.66;;;5.78;60.60
34931;BME280;21134;49.646;8.560;2023-03-02T09:04:36;100750.84;;;5.76;61.10
34931;BME280;21134;49.646;8.560;2023-03-02T09:07:03;100751.09;;;5.87;60.76
34931;BME280;21134;49.646;8.560;2023-03-02T09:09:29;100748.09;;;6.03;60.48
34931;BME280;21134;49.646;8.560;2023-03-02T09:11:56;100748.88;;;6.01;59.97
34931;BME280;21134;49.646;8.560;2023-03-02T09:14:22;100746.38;;;6.02;59.97
34931;BME280;21134;49.646;8.560;2023-03-02T09:16:50;100748.34;;;6.16;59.46
34931;BME280;21134;49.646;8.560;2023-03-02T09:19:18;100740.72;;;6.16;59.43
34931;BME280;21134;49.646;8.560;2023-03-02T09:21:45;100744.50;;;6.35;59.02
34931;BME280;21134;49.646;8.560;2023-03-02T09:24:13;100740.22;;;6.32;60.08
34931;BME280;21134;49.646;8.560;2023-03-02T09:26:42;100735.28;;;6.38;59.43
34931;BME280;21134;49.646;8.560;2023-03-02T09:29:09;100741.53;;;6.56;59.10
34931;BME280;21134;49.646;8.560;2023-03-02T09:31:36;100739.66;;;6.45;59.54
34931;BME280;21134;49.646;8.560;2023-03-02T09:34:04;100735.59;;;6.55;59.92
34931;BME280;21134;49.646;8.560;2023-03-02T09:36:30;100742.50;;;6.61;58.81
34931;BME280;21134;49.646;8.560;2023-03-02T09:38:58;100738.63;;;6.81;57.74
34931;BME280;21134;49.646;8.560;2023-03-02T09:41:37;100736.06;;;6.80;59.20
34931;BME280;21134;49.646;8.560;2023-03-02T09:44:22;100742.97;;;6.87;58.46
34931;BME280;21134;49.646;8.560;2023-03-02T09:46:55;100745.69;;;6.96;57.82
34931;BME280;21134;49.646;8.560;2023-03-02T09:49:36;100740.66;;;6.99;59.00
34931;BME280;21134;49.646;8.560;2023-03-02T09:52:15;100732.59;;;7.26;57.95
34931;BME280;21134;49.646;8.560;2023-03-02T09:54:43;100733.50;;;7.30;57.31
34931;BME280;21134;49.646;8.560;2023-03-02T09:57:19;100732.72;;;7.34;56.39
34931;BME280;21134;49.646;8.560;2023-03-02T09:59:49;100739.41;;;7.27;57.26
34931;BME280;21134;49.646;8.560;2023-03-02T10:02:23;100728.47;;;7.31;56.67
34931;BME280;21134;49.646;8.560;2023-03-02T10:04:55;100724.56;;;7.55;56.97
34931;BME280;21134;49.646;8.560;2023-03-02T10:07:26;100730.47;;;7.51;57.11
34931;BME280;21134;49.646;8.560;2023-03-02T10:09:53;100723.06;;;7.67;55.95
34931;BME280;21134;49.646;8.560;2023-03-02T10:12:36;100723.91;;;7.68;56.17
34931;BME280;21134;49.646;8.560;2023-03-02T10:15:12;100731.56;;;7.68;56.54
34931;BME280;21134;49.646;8.560;2023-03-02T10:17:48;100726.59;;;7.77;56.83
34931;BME280;21134;49.646;8.560;2023-03-02T10:20:24;100733.53;;;7.86;56.20
34931;BME280;21134;49.646;8.560;2023-03-02T10:22:57;100725.06;;;7.88;56.24
34931;BME280;21134;49.646;8.560;2023-03-02T10:25:32;100722.66;;;7.98;56.25
34931;BME280;21134;49.646;8.560;2023-03-02T10:28:10;100714.25;;;8.05;56.70
34931;BME280;21134;49.646;8.560;2023-03-02T10:30:41;100726.41;;;8.27;55.60
34931;BME280;21134;49.646;8.560;2023-03-02T10:33:11;100724.00;;;8.38;55.67
34931;BME280;21134;49.646;8.560;2023-03-02T10:35:44;100719.66;;;8.31;55.73
34931;BME280;21134;49.646;8.560;2023-03-02T10:38:13;100717.22;;;8.38;55.62
34931;BME280;21134;49.646;8.560;2023-03-02T10:40:42;100717.31;;;8.46;56.03
34931;BME280;21134;49.646;8.560;2023-03-02T10:43:15;100716.47;;;8.46;54.94
34931;BME280;21134;49.646;8.560;2023-03-02T10:45:43;100719.09;;;8.53;54.76
34931;BME280;21134;49.646;8.560;2023-03-02T10:48:11;100717.50;;;8.63;54.69
34931;BME280;21134;49.646;8.560;2023-03-02T10:50:41;100717.56;;;8.69;53.69
34931;BME280;21134;49.646;8.560;2023-03-02T10:53:15;100703.97;;;8.70;54.65
34931;BME280;21134;49.646;8.560;2023-03-02T10:55:44;100704.00;;;8.72;54.59
34931;BME280;21134;49.646;8.560;2023-03-02T10:58:21;100703.16;;;8.73;55.06
34931;BME280;21134;49.646;8.560;2023-03-02T11:00:58;100699.88;;;8.84;54.60
34931;BME280;21134;49.646;8.560;2023-03-02T11:03:25;100697.41;;;8.94;54.25
34931;BME280;21134;49.646;8.560;2023-03-02T11:05:54;100690.59;;;8.96;54.22
34931;BME280;21134;49.646;8.560;2023-03-02T11:08:22;100682.16;;;9.06;53.86
34931;BME280;21134;49.646;8.560;2023-03-02T11:10:54;100689.06;;;9.18;53.06
34931;BME280;21134;49.646;8.560;2023-03-02T11:13:24;100686.50;;;9.15;54.42
34931;BME280;21134;49.646;8.560;2023-03-02T11:15:54;100683.09;;;9.14;53.45
34931;BME280;21134;49.646;8.560;2023-03-02T11:18:28;100681.50;;;9.31;53.47
34931;BME280;21134;49.646;8.560;2023-03-02T11:21:00;100679.81;;;9.30;52.99
34931;BME280;21134;49.646;8.560;2023-03-02T11:23:35;100681.50;;;9.31;53.34
34931;BME280;21134;49.646;8.560;2023-03-02T11:26:08;100673.88;;;9.35;53.43
34931;BME280;21134;49.646;8.560;2023-03-02T11:28:43;100678.97;;;9.30;53.60
34931;BME280;21134;49.646;8.560;2023-03-02T11:31:15;100678.19;;;9.39;53.38
34931;BME280;21134;49.646;8.560;2023-03-02T11:33:55;100674.06;;;9.61;52.20
34931;BME280;21134;49.646;8.560;2023-03-02T11:36:35;100669.78;;;9.58;52.88
34931;BME280;21134;49.646;8.560;2023-03-02T11:39:08;100666.47;;;9.74;52.77
34931;BME280;21134;49.646;8.560;2023-03-02T11:41:37;100669.06;;;9.84;52.29
34931;BME280;21134;49.646;8.560;2023-03-02T11:44:11;100668.25;;;9.89;52.62
34931;BME280;21134;49.646;8.560;2023-03-02T11:46:40;100660.53;;;9.78;51.62
34931;BME280;21134;49.646;8.560;2023-03-02T11:49:13;100665.72;;;10.00;51.01
34931;BME280;21134;49.646;8.560;2023-03-02T11:51:47;100658.94;;;9.99;51.14
34931;BME280;21134;49.646;8.560;2023-03-02T11:54:28;100656.34;;;9.96;51.70
34931;BME280;21134;49.646;8.560;2023-03-02T11:56:58;100655.53;;;10.06;51.36
34931;BME280;21134;49.646;8.560;2023-03-02T11:59:25;100647.97;;;10.26;51.09
34931;BME280;21134;49.646;8.560;2023-03-02T12:01:53;100647.13;;;10.32;50.83
34931;BME280;21134;49.646;8.560;2023-03-02T12:04:26;100645.38;;;10.21;52.02
34931;BME280;21134;49.646;8.560;2023-03-02T12:06:54;100638.56;;;10.25;51.25
34931;BME280;21134;49.646;8.560;2023-03-02T12:09:27;100636.81;;;10.24;50.52
34931;BME280;21134;49.646;8.560;2023-03-02T12:11:58;100624.13;;;10.42;50.36
34931;BME280;21134;49.646;8.560;2023-03-02T12:14:34;100630.97;;;10.54;50.81
34931;BME280;21134;49.646;8.560;2023-03-02T12:17:04;100636.06;;;10.53;50.84
34931;BME280;21134;49.646;8.560;2023-03-02T12:19:39;100625.00;;;10.57;50.49
34931;BME280;21134;49.646;8.560;2023-03-02T12:22:08;100627.56;;;10.64;49.94
34931;BME280;21134;49.646;8.560;2023-03-02T12:24:38;100627.59;;;10.66;49.41
34931;BME280;21134;49.646;8.560;2023-03-02T12:27:06;100625.84;;;10.74;50.10
34931;BME280;21134;49.646;8.560;2023-03-02T12:29:54;100627.56;;;10.77;49.75
34931;BME280;21134;49.646;8.560;2023-03-02T12:32:24;100615.63;;;10.88;49.91
34931;BME280;21134;49.646;8.560;2023-03-02T12:34:54;100624.19;;;10.98;49.60
34931;BME280;21134;49.646;8.560;2023-03-02T12:37:26;100608.78;;;10.81;50.21
34931;BME280;21134;49.646;8.560;2023-03-02T12:40:23;100609.66;;;10.95;49.17
34931;BME280;21134;49.646;8.560;2023-03-02T12:43:11;100608.78;;;10.96;50.41
34931;BME280;21134;49.646;8.560;2023-03-02T12:45:52;100604.50;;;11.18;49.46
34931;BME280;21134;49.646;8.560;2023-03-02T12:48:24;100597.69;;;11.12;49.18
34931;BME280;21134;49.646;8.560;2023-03-02T12:50:56;100601.94;;;11.20;48.89
34931;BME280;21134;49.646;8.560;2023-03-02T12:53:26;100595.97;;;11.13;48.53
34931;BME280;21134;49.646;8.560;2023-03-02T12:55:53;100597.69;;;11.15;48.47
34931;BME280;21134;49.646;8.560;2023-03-02T12:58:22;100595.94;;;11.33;48.23
34931;BME280;21134;49.646;8.560;2023-03-02T13:00:51;100589.09;;;11.35;48.44
34931;BME280;21134;49.646;8.560;2023-03-02T13:03:18;100590.84;;;11.30;48.68
34931;BME280;21134;49.646;8.560;2023-03-02T13:05:45;100582.28;;;11.29;48.89
34931;BME280;21134;49.646;8.560;2023-03-02T13:08:16;100588.25;;;11.34;49.50
34931;BME280;21134;49.646;8.560;2023-03-02T13:10:49;100584.78;;;11.51;48.73